sensor_id;sensor_type;location;lat;lon;timestamp;P1;durP1;ratioP1;P2;durP2;ratioP2
7142;SDS011;3613;48.902;9.204;2022-08-11T00:05:00;2.43;;;2.10;;
7142;SDS011;3613;48.902;9.204;2022-08-11T00:07:50;3.10;;;2.77;;
7142;SDS011;3613;48.902;9.204;2022-08-11T00:10:22;4.03;;;2.80;;
7142;SDS011;3613;48.902;9.204;2022-08-11T00:12:51;3.57;;;2.47;;
7142;SDS011;3613;48.902;9.204;2022-08-11T00:15:26;3.70;;;2.50;;
7142;SDS011;3613;48.902;9.204;2022-08-11T00:18:05;3.10;;;2.70;;
7142;SDS011;3613;48.902;9.204;2022-08-11T00:20:37;2.57;;;2.23;;
7142;SDS011;3613;48.902;9.204;2022-08-11T00:23:06;2.73;;;2.20;;
7142;SDS011;3613;48.902;9.204;2022-08-11T00:25:39;3.07;;;2.60;;
7142;SDS011;3613;48.902;9.204;2022-08-11T00:31:03;3.23;;;2.83;;
7142;SDS011;3613;48.902;9.204;2022-08-11T00:33:36;2.93;;;2.60;;
7142;SDS011;3613;48.902;9.204;2022-08-11T00:36:09;2.43;;;2.20;;
7142;SDS011;3613;48.902;9.204;2022-08-11T00:38:40;2.90;;;2.60;;
7142;SDS011;3613;48.902;9.204;2022-08-11T01:55:31;3.57;;;3.00;;
7142;SDS011;3613;48.902;9.204;2022-08-11T01:57:36;5.73;;;3.10;;
7142;SDS011;3613;48.902;9.204;2022-08-11T02:00:16;3.27;;;2.80;;
7142;SDS011;3613;48.902;9.204;2022-08-11T02:10:43;3.03;;;2.70;;
7142;SDS011;3613;48.902;9.204;2022-08-11T02:18:49;5.33;;;3.50;;
7142;SDS011;3613;48.902;9.204;2022-08-11T02:21:43;3.77;;;2.97;;
7142;SDS011;3613;48.902;9.204;2022-08-11T02:24:55;5.23;;;3.40;;
7142;SDS011;3613;48.902;9.204;2022-08-11T02:27:33;3.80;;;3.40;;
7142;SDS011;3613;48.902;9.204;2022-08-11T02:30:14;3.80;;;3.20;;
7142;SDS011;3613;48.902;9.204;2022-08-11T02:44:43;3.57;;;3.27;;
7142;SDS011;3613;48.902;9.204;2022-08-11T02:58:18;3.67;;;3.30;;
7142;SDS011;3613;48.902;9.204;2022-08-11T03:01:12;4.20;;;3.30;;
7142;SDS011;3613;48.902;9.204;2022-08-11T03:06:32;3.60;;;3.23;;
7142;SDS011;3613;48.902;9.204;2022-08-11T03:09:24;4.50;;;3.10;;
7142;SDS011;3613;48.902;9.204;2022-08-11T03:11:56;3.40;;;3.10;;
7142;SDS011;3613;48.902;9.204;2022-08-11T03:14:55;3.30;;;3.00;;
7142;SDS011;3613;48.902;9.204;2022-08-11T03:18:01;4.80;;;2.90;;
7142;SDS011;3613;48.902;9.204;2022-08-11T03:20:45;3.20;;;2.90;;
7142;SDS011;3613;48.902;9.204;2022-08-11T03:23:24;3.30;;;2.93;;
7142;SDS011;3613;48.902;9.204;2022-08-11T03:34:00;5.07;;;3.03;;
7142;SDS011;3613;48.902;9.204;2022-08-11T03:48:28;4.30;;;3.20;;
7142;SDS011;3613;48.902;9.204;2022-08-11T04:05:46;4.00;;;3.07;;
7142;SDS011;3613;48.902;9.204;2022-08-11T04:14:09;5.57;;;3.10;;
7142;SDS011;3613;48.902;9.204;2022-08-11T04:17:20;2.93;;;2.67;;
7142;SDS011;3613;48.902;9.204;2022-08-11T04:28:39;3.17;;;2.83;;
7142;SDS011;3613;48.902;9.204;2022-08-11T04:32:28;4.97;;;2.80;;
7142;SDS011;3613;48.902;9.204;2022-08-11T04:37:42;4.50;;;2.93;;
7142;SDS011;3613;48.902;9.204;2022-08-11T05:14:55;4.03;;;2.93;;
7142;SDS011;3613;48.902;9.204;2022-08-11T05:20:51;8.30;;;3.23;;
7142;SDS011;3613;48.902;9.204;2022-08-11T05:23:40;4.97;;;2.63;;
7142;SDS011;3613;48.902;9.204;2022-08-11T05:26:28;4.77;;;3.03;;
7142;SDS011;3613;48.902;9.204;2022-08-11T05:30:26;5.00;;;3.50;;
7142;SDS011;3613;48.902;9.204;2022-08-11T05:32:39;4.57;;;3.10;;
7142;SDS011;3613;48.902;9.204;2022-08-11T05:35:27;5.20;;;3.00;;
7142;SDS011;3613;48.902;9.204;2022-08-11T05:38:01;2.90;;;2.70;;
7142;SDS011;3613;48.902;9.204;2022-08-11T05:40:52;4.03;;;3.07;;
7142;SDS011;3613;48.902;9.204;2022-08-11T05:43:39;3.57;;;2.70;;
7142;SDS011;3613;48.902;9.204;2022-08-11T05:46:26;4.30;;;2.80;;
7142;SDS011;3613;48.902;9.204;2022-08-11T05:49:12;5.03;;;3.00;;
7142;SDS011;3613;48.902;9.204;2022-08-11T05:51:57;4.90;;;3.40;;
7142;SDS011;3613;48.902;9.204;2022-08-11T05:54:42;3.47;;;3.17;;
7142;SDS011;3613;48.902;9.204;2022-08-11T05:57:28;6.07;;;2.80;;
7142;SDS011;3613;48.902;9.204;2022-08-11T06:00:04;4.87;;;3.00;;
7142;SDS011;3613;48.902;9.204;2022-08-11T06:02:40;6.20;;;3.10;;
7142;SDS011;3613;48.902;9.204;2022-08-11T06:05:08;9.13;;;3.10;;
7142;SDS011;3613;48.902;9.204;2022-08-11T06:07:35;3.67;;;2.80;;
7142;SDS011;3613;48.902;9.204;2022-08-11T06:10:01;6.03;;;3.20;;
7142;SDS011;3613;48.902;9.204;2022-08-11T06:12:31;6.33;;;2.77;;
7142;SDS011;3613;48.902;9.204;2022-08-11T06:15:05;4.90;;;3.30;;
7142;SDS011;3613;48.902;9.204;2022-08-11T06:17:34;8.67;;;2.93;;
7142;SDS011;3613;48.902;9.204;2022-08-11T06:20:09;4.73;;;2.93;;
7142;SDS011;3613;48.902;9.204;2022-08-11T06:22:47;6.38;;;3.67;;
7142;SDS011;3613;48.902;9.204;2022-08-11T06:25:20;6.80;;;2.80;;
7142;SDS011;3613;48.902;9.204;2022-08-11T06:27:47;6.25;;;3.10;;
7142;SDS011;3613;48.902;9.204;2022-08-11T06:30:31;6.55;;;3.40;;
7142;SDS011;3613;48.902;9.204;2022-08-11T06:33:07;3.50;;;2.80;;
7142;SDS011;3613;48.902;9.204;2022-08-11T06:38:22;3.60;;;2.85;;
7142;SDS011;3613;48.902;9.204;2022-08-11T06:41:17;5.05;;;2.90;;
7142;SDS011;3613;48.902;9.204;2022-08-11T06:46:38;5.35;;;2.65;;
7142;SDS011;3613;48.902;9.204;2022-08-11T06:49:08;3.97;;;2.60;;
7142;SDS011;3613;48.902;9.204;2022-08-11T06:51:55;5.95;;;2.90;;
7142;SDS011;3613;48.902;9.204;2022-08-11T06:54:29;4.10;;;2.67;;
7142;SDS011;3613;48.902;9.204;2022-08-11T06:57:10;3.33;;;2.63;;
7142;SDS011;3613;48.902;9.204;2022-08-11T06:59:58;3.55;;;2.78;;
7142;SDS011;3613;48.902;9.204;2022-08-11T07:03:06;3.10;;;2.67;;
7142;SDS011;3613;48.902;9.204;2022-08-11T07:13:58;3.95;;;2.70;;
7142;SDS011;3613;48.902;9.204;2022-08-11T07:16:46;4.15;;;2.80;;
7142;SDS011;3613;48.902;9.204;2022-08-11T07:19:15;4.95;;;2.90;;
7142;SDS011;3613;48.902;9.204;2022-08-11T07:22:04;6.43;;;2.72;;
7142;SDS011;3613;48.902;9.204;2022-08-11T07:27:45;3.97;;;2.67;;
7142;SDS011;3613;48.902;9.204;2022-08-11T07:30:38;3.10;;;2.45;;
7142;SDS011;3613;48.902;9.204;2022-08-11T07:33:05;3.67;;;2.70;;
7142;SDS011;3613;48.902;9.204;2022-08-11T07:35:42;3.45;;;2.80;;
7142;SDS011;3613;48.902;9.204;2022-08-11T07:38:24;4.15;;;2.85;;
7142;SDS011;3613;48.902;9.204;2022-08-11T07:41:17;4.05;;;2.55;;
7142;SDS011;3613;48.902;9.204;2022-08-11T07:43:47;3.27;;;2.80;;
7142;SDS011;3613;48.902;9.204;2022-08-11T07:46:18;3.88;;;3.33;;
7142;SDS011;3613;48.902;9.204;2022-08-11T07:49:03;3.38;;;2.78;;
7142;SDS011;3613;48.902;9.204;2022-08-11T07:51:51;5.20;;;2.90;;
7142;SDS011;3613;48.902;9.204;2022-08-11T07:54:39;3.63;;;2.87;;
7142;SDS011;3613;48.902;9.204;2022-08-11T07:57:08;2.85;;;2.60;;
7142;SDS011;3613;48.902;9.204;2022-08-11T07:59:53;4.50;;;3.00;;
7142;SDS011;3613;48.902;9.204;2022-08-11T08:02:41;4.13;;;3.03;;
7142;SDS011;3613;48.902;9.204;2022-08-11T08:05:29;3.77;;;2.57;;
7142;SDS011;3613;48.902;9.204;2022-08-11T08:08:14;4.53;;;2.70;;
7142;SDS011;3613;48.902;9.204;2022-08-11T08:10:59;5.50;;;2.93;;
7142;SDS011;3613;48.902;9.204;2022-08-11T08:13:44;4.47;;;2.70;;
7142;SDS011;3613;48.902;9.204;2022-08-11T08:16:29;4.50;;;2.50;;
7142;SDS011;3613;48.902;9.204;2022-08-11T08:19:18;3.80;;;2.80;;
7142;SDS011;3613;48.902;9.204;2022-08-11T08:21:45;3.83;;;2.70;;
7142;SDS011;3613;48.902;9.204;2022-08-11T08:24:12;5.33;;;3.00;;
7142;SDS011;3613;48.902;9.204;2022-08-11T08:26:48;3.53;;;2.90;;
7142;SDS011;3613;48.902;9.204;2022-08-11T08:29:28;8.63;;;3.10;;
7142;SDS011;3613;48.902;9.204;2022-08-11T08:32:17;3.87;;;2.97;;
7142;SDS011;3613;48.902;9.204;2022-08-11T08:34:44;3.90;;;3.03;;
7142;SDS011;3613;48.902;9.204;2022-08-11T08:37:11;4.50;;;2.83;;
7142;SDS011;3613;48.902;9.204;2022-08-11T08:39:38;3.90;;;2.57;;
7142;SDS011;3613;48.902;9.204;2022-08-11T08:42:10;4.03;;;2.70;;
7142;SDS011;3613;48.902;9.204;2022-08-11T08:44:42;3.40;;;3.10;;
7142;SDS011;3613;48.902;9.204;2022-08-11T08:47:19;3.30;;;3.00;;
7142;SDS011;3613;48.902;9.204;2022-08-11T08:49:49;4.73;;;2.70;;
7142;SDS011;3613;48.902;9.204;2022-08-11T08:52:22;2.80;;;2.60;;
7142;SDS011;3613;48.902;9.204;2022-08-11T08:54:50;3.30;;;2.37;;
7142;SDS011;3613;48.902;9.204;2022-08-11T08:57:21;4.10;;;2.63;;
7142;SDS011;3613;48.902;9.204;2022-08-11T08:59:47;2.63;;;2.40;;
7142;SDS011;3613;48.902;9.204;2022-08-11T09:02:17;3.43;;;2.70;;
7142;SDS011;3613;48.902;9.204;2022-08-11T09:04:47;3.83;;;2.40;;
7142;SDS011;3613;48.902;9.204;2022-08-11T09:07:17;4.00;;;2.60;;
7142;SDS011;3613;48.902;9.204;2022-08-11T09:09:48;3.87;;;2.50;;
7142;SDS011;3613;48.902;9.204;2022-08-11T09:12:17;4.97;;;2.50;;
7142;SDS011;3613;48.902;9.204;2022-08-11T09:14:45;2.73;;;2.37;;
7142;SDS011;3613;48.902;9.204;2022-08-11T09:20:34;4.93;;;2.60;;
7142;SDS011;3613;48.902;9.204;2022-08-11T09:23:03;3.23;;;2.63;;
7142;SDS011;3613;48.902;9.204;2022-08-11T09:25:53;4.43;;;2.50;;
7142;SDS011;3613;48.902;9.204;2022-08-11T09:28:42;2.83;;;2.53;;
7142;SDS011;3613;48.902;9.204;2022-08-11T09:31:10;3.20;;;2.50;;
7142;SDS011;3613;48.902;9.204;2022-08-11T09:33:37;3.60;;;2.43;;
7142;SDS011;3613;48.902;9.204;2022-08-11T09:36:04;3.07;;;2.63;;
7142;SDS011;3613;48.902;9.204;2022-08-11T09:38:51;4.00;;;2.30;;
7142;SDS011;3613;48.902;9.204;2022-08-11T09:41:36;4.23;;;2.10;;
7142;SDS011;3613;48.902;9.204;2022-08-11T09:44:04;4.00;;;2.40;;
7142;SDS011;3613;48.902;9.204;2022-08-11T09:46:50;2.33;;;2.13;;
7142;SDS011;3613;48.902;9.204;2022-08-11T09:49:18;4.37;;;2.47;;
7142;SDS011;3613;48.902;9.204;2022-08-11T09:51:47;3.27;;;2.30;;
7142;SDS011;3613;48.902;9.204;2022-08-11T09:54:14;3.40;;;2.50;;
7142;SDS011;3613;48.902;9.204;2022-08-11T09:56:42;2.93;;;2.20;;
7142;SDS011;3613;48.902;9.204;2022-08-11T09:59:27;2.60;;;2.20;;
7142;SDS011;3613;48.902;9.204;2022-08-11T10:01:59;2.87;;;2.57;;
7142;SDS011;3613;48.902;9.204;2022-08-11T10:04:30;3.00;;;2.30;;
7142;SDS011;3613;48.902;9.204;2022-08-11T10:07:17;3.67;;;2.43;;
7142;SDS011;3613;48.902;9.204;2022-08-11T10:09:51;3.43;;;2.20;;
7142;SDS011;3613;48.902;9.204;2022-08-11T10:12:35;3.03;;;2.20;;
7142;SDS011;3613;48.902;9.204;2022-08-11T10:15:08;2.40;;;2.20;;
7142;SDS011;3613;48.902;9.204;2022-08-11T10:17:59;3.33;;;2.57;;
7142;SDS011;3613;48.902;9.204;2022-08-11T10:20:46;6.60;;;2.47;;
7142;SDS011;3613;48.902;9.204;2022-08-11T10:23:16;4.00;;;2.40;;
7142;SDS011;3613;48.902;9.204;2022-08-11T10:26:02;2.30;;;2.10;;
7142;SDS011;3613;48.902;9.204;2022-08-11T10:28:47;3.03;;;2.20;;
7142;SDS011;3613;48.902;9.204;2022-08-11T10:31:14;4.27;;;2.40;;
7142;SDS011;3613;48.902;9.204;2022-08-11T10:33:58;3.33;;;2.20;;
7142;SDS011;3613;48.902;9.204;2022-08-11T10:36:28;3.03;;;2.40;;
7142;SDS011;3613;48.902;9.204;2022-08-11T10:38:58;2.60;;;2.40;;
7142;SDS011;3613;48.902;9.204;2022-08-11T10:41:25;3.10;;;2.73;;
7142;SDS011;3613;48.902;9.204;2022-08-11T10:44:11;3.30;;;2.30;;
7142;SDS011;3613;48.902;9.204;2022-08-11T10:46:37;4.13;;;2.30;;
7142;SDS011;3613;48.902;9.204;2022-08-11T10:49:22;4.60;;;2.10;;
7142;SDS011;3613;48.902;9.204;2022-08-11T10:51:51;2.60;;;2.03;;
7142;SDS011;3613;48.902;9.204;2022-08-11T10:54:38;2.87;;;2.17;;
7142;SDS011;3613;48.902;9.204;2022-08-11T10:57:25;3.77;;;2.10;;
7142;SDS011;3613;48.902;9.204;2022-08-11T11:00:10;3.87;;;2.10;;
7142;SDS011;3613;48.902;9.204;2022-08-11T11:02:39;4.27;;;2.60;;
7142;SDS011;3613;48.902;9.204;2022-08-11T11:05:13;2.87;;;2.17;;
7142;SDS011;3613;48.902;9.204;2022-08-11T11:07:57;2.60;;;2.20;;
7142;SDS011;3613;48.902;9.204;2022-08-11T11:10:54;5.43;;;3.43;;
7142;SDS011;3613;48.902;9.204;2022-08-11T11:13:20;2.97;;;2.00;;
7142;SDS011;3613;48.902;9.204;2022-08-11T11:16:06;3.57;;;1.97;;
7142;SDS011;3613;48.902;9.204;2022-08-11T11:19:08;3.07;;;2.03;;
7142;SDS011;3613;48.902;9.204;2022-08-11T11:21:35;3.73;;;2.03;;
7142;SDS011;3613;48.902;9.204;2022-08-11T11:27:06;2.30;;;1.70;;
7142;SDS011;3613;48.902;9.204;2022-08-11T11:37:31;2.80;;;2.00;;
7142;SDS011;3613;48.902;9.204;2022-08-11T11:40:01;2.70;;;2.03;;
7142;SDS011;3613;48.902;9.204;2022-08-11T11:42:34;3.37;;;2.20;;
7142;SDS011;3613;48.902;9.204;2022-08-11T11:45:01;2.83;;;2.10;;
7142;SDS011;3613;48.902;9.204;2022-08-11T11:47:28;2.33;;;2.00;;
7142;SDS011;3613;48.902;9.204;2022-08-11T11:49:56;4.05;;;2.00;;
7142;SDS011;3613;48.902;9.204;2022-08-11T11:52:24;3.10;;;2.03;;
7142;SDS011;3613;48.902;9.204;2022-08-11T11:54:55;3.83;;;2.33;;
7142;SDS011;3613;48.902;9.204;2022-08-11T11:57:21;2.35;;;1.98;;
7142;SDS011;3613;48.902;9.204;2022-08-11T12:00:08;4.05;;;2.38;;
7142;SDS011;3613;48.902;9.204;2022-08-11T12:03:00;2.78;;;2.20;;
7142;SDS011;3613;48.902;9.204;2022-08-11T12:05:29;2.67;;;2.45;;
7142;SDS011;3613;48.902;9.204;2022-08-11T12:07:57;4.47;;;2.25;;
7142;SDS011;3613;48.902;9.204;2022-08-11T12:11:03;2.50;;;1.80;;
7142;SDS011;3613;48.902;9.204;2022-08-11T12:13:50;4.53;;;2.13;;
7142;SDS011;3613;48.902;9.204;2022-08-11T12:16:20;3.72;;;2.20;;
7142;SDS011;3613;48.902;9.204;2022-08-11T12:18:50;5.40;;;2.22;;
7142;SDS011;3613;48.902;9.204;2022-08-11T12:21:19;2.83;;;1.92;;
7142;SDS011;3613;48.902;9.204;2022-08-11T12:23:45;3.00;;;2.10;;
7142;SDS011;3613;48.902;9.204;2022-08-11T12:26:30;4.32;;;2.50;;
7142;SDS011;3613;48.902;9.204;2022-08-11T12:29:23;2.53;;;1.90;;
7142;SDS011;3613;48.902;9.204;2022-08-11T12:31:52;2.13;;;1.92;;
7142;SDS011;3613;48.902;9.204;2022-08-11T12:34:19;3.85;;;1.90;;
7142;SDS011;3613;48.902;9.204;2022-08-11T12:36:48;2.25;;;2.05;;
7142;SDS011;3613;48.902;9.204;2022-08-11T12:39:20;2.22;;;1.75;;
7142;SDS011;3613;48.902;9.204;2022-08-11T12:42:09;3.78;;;1.98;;
7142;SDS011;3613;48.902;9.204;2022-08-11T12:44:59;2.55;;;2.10;;
7142;SDS011;3613;48.902;9.204;2022-08-11T12:47:49;2.90;;;2.05;;
7142;SDS011;3613;48.902;9.204;2022-08-11T12:50:34;2.95;;;1.85;;
7142;SDS011;3613;48.902;9.204;2022-08-11T12:53:26;2.55;;;1.85;;
7142;SDS011;3613;48.902;9.204;2022-08-11T12:55:56;5.25;;;2.10;;
7142;SDS011;3613;48.902;9.204;2022-08-11T12:58:45;3.55;;;1.98;;
7142;SDS011;3613;48.902;9.204;2022-08-11T13:01:13;2.30;;;2.05;;
7142;SDS011;3613;48.902;9.204;2022-08-11T13:03:58;1.83;;;1.70;;
7142;SDS011;3613;48.902;9.204;2022-08-11T13:06:43;2.50;;;1.63;;
7142;SDS011;3613;48.902;9.204;2022-08-11T13:09:09;1.80;;;1.50;;
7142;SDS011;3613;48.902;9.204;2022-08-11T13:11:36;2.92;;;2.08;;
7142;SDS011;3613;48.902;9.204;2022-08-11T13:14:22;2.75;;;1.77;;
7142;SDS011;3613;48.902;9.204;2022-08-11T13:16:50;2.58;;;2.33;;
7142;SDS011;3613;48.902;9.204;2022-08-11T13:19:35;4.57;;;2.10;;
7142;SDS011;3613;48.902;9.204;2022-08-11T13:22:01;4.97;;;1.85;;
7142;SDS011;3613;48.902;9.204;2022-08-11T13:24:31;1.60;;;1.50;;
7142;SDS011;3613;48.902;9.204;2022-08-11T13:27:00;2.85;;;1.83;;
7142;SDS011;3613;48.902;9.204;2022-08-11T13:29:27;2.15;;;1.60;;
7142;SDS011;3613;48.902;9.204;2022-08-11T13:31:54;2.28;;;1.90;;
7142;SDS011;3613;48.902;9.204;2022-08-11T13:34:26;1.80;;;1.70;;
7142;SDS011;3613;48.902;9.204;2022-08-11T13:36:56;2.67;;;1.90;;
7142;SDS011;3613;48.902;9.204;2022-08-11T13:39:26;3.88;;;1.75;;
7142;SDS011;3613;48.902;9.204;2022-08-11T13:41:54;2.22;;;1.83;;
7142;SDS011;3613;48.902;9.204;2022-08-11T13:44:21;2.60;;;1.98;;
7142;SDS011;3613;48.902;9.204;2022-08-11T13:46:52;2.50;;;1.93;;
7142;SDS011;3613;48.902;9.204;2022-08-11T13:49:21;3.17;;;2.00;;
7142;SDS011;3613;48.902;9.204;2022-08-11T13:51:48;3.07;;;1.70;;
7142;SDS011;3613;48.902;9.204;2022-08-11T13:54:15;2.10;;;1.90;;
7142;SDS011;3613;48.902;9.204;2022-08-11T13:56:55;3.03;;;1.80;;
7142;SDS011;3613;48.902;9.204;2022-08-11T13:59:24;4.37;;;2.20;;
7142;SDS011;3613;48.902;9.204;2022-08-11T14:01:56;4.23;;;1.90;;
7142;SDS011;3613;48.902;9.204;2022-08-11T14:04:33;2.10;;;1.90;;
7142;SDS011;3613;48.902;9.204;2022-08-11T14:07:26;2.20;;;1.70;;
7142;SDS011;3613;48.902;9.204;2022-08-11T14:09:59;1.83;;;1.67;;
7142;SDS011;3613;48.902;9.204;2022-08-11T14:12:26;4.50;;;1.90;;
7142;SDS011;3613;48.902;9.204;2022-08-11T14:17:44;3.70;;;2.23;;
7142;SDS011;3613;48.902;9.204;2022-08-11T14:20:38;2.20;;;1.80;;
7142;SDS011;3613;48.902;9.204;2022-08-11T14:23:30;2.50;;;2.03;;
7142;SDS011;3613;48.902;9.204;2022-08-11T14:26:01;3.10;;;2.00;;
7142;SDS011;3613;48.902;9.204;2022-08-11T14:29:00;3.40;;;1.90;;
7142;SDS011;3613;48.902;9.204;2022-08-11T14:31:32;4.10;;;2.00;;
7142;SDS011;3613;48.902;9.204;2022-08-11T14:34:03;2.83;;;1.90;;
7142;SDS011;3613;48.902;9.204;2022-08-11T14:36:35;2.43;;;1.77;;
7142;SDS011;3613;48.902;9.204;2022-08-11T14:39:05;3.43;;;2.00;;
7142;SDS011;3613;48.902;9.204;2022-08-11T14:41:37;2.73;;;1.93;;
7142;SDS011;3613;48.902;9.204;2022-08-11T14:44:45;2.63;;;1.80;;
7142;SDS011;3613;48.902;9.204;2022-08-11T14:47:58;2.67;;;2.03;;
7142;SDS011;3613;48.902;9.204;2022-08-11T14:50:28;4.63;;;2.10;;
7142;SDS011;3613;48.902;9.204;2022-08-11T14:52:59;2.37;;;1.80;;
7142;SDS011;3613;48.902;9.204;2022-08-11T14:55:31;2.73;;;2.00;;
7142;SDS011;3613;48.902;9.204;2022-08-11T14:58:20;3.00;;;1.90;;
7142;SDS011;3613;48.902;9.204;2022-08-11T15:00:55;3.23;;;2.00;;
7142;SDS011;3613;48.902;9.204;2022-08-11T15:03:23;2.60;;;1.90;;
7142;SDS011;3613;48.902;9.204;2022-08-11T15:05:51;4.53;;;1.90;;
7142;SDS011;3613;48.902;9.204;2022-08-11T15:08:18;3.40;;;1.90;;
7142;SDS011;3613;48.902;9.204;2022-08-11T15:11:05;2.00;;;1.87;;
7142;SDS011;3613;48.902;9.204;2022-08-11T15:13:52;2.27;;;1.90;;
7142;SDS011;3613;48.902;9.204;2022-08-11T15:16:19;2.90;;;2.00;;
7142;SDS011;3613;48.902;9.204;2022-08-11T15:19:04;3.90;;;1.67;;
7142;SDS011;3613;48.902;9.204;2022-08-11T15:21:30;4.13;;;1.90;;
7142;SDS011;3613;48.902;9.204;2022-08-11T15:24:19;2.87;;;1.90;;
7142;SDS011;3613;48.902;9.204;2022-08-11T15:26:45;14.73;;;2.60;;
7142;SDS011;3613;48.902;9.204;2022-08-11T15:29:31;2.00;;;1.80;;
7142;SDS011;3613;48.902;9.204;2022-08-11T15:32:18;4.73;;;2.10;;
7142;SDS011;3613;48.902;9.204;2022-08-11T15:34:52;2.40;;;1.93;;
7142;SDS011;3613;48.902;9.204;2022-08-11T15:37:42;3.07;;;1.87;;
7142;SDS011;3613;48.902;9.204;2022-08-11T15:43:24;3.40;;;1.70;;
7142;SDS011;3613;48.902;9.204;2022-08-11T15:46:22;3.30;;;1.90;;
7142;SDS011;3613;48.902;9.204;2022-08-11T15:49:03;2.43;;;1.80;;
7142;SDS011;3613;48.902;9.204;2022-08-11T15:51:47;2.40;;;2.20;;
7142;SDS011;3613;48.902;9.204;2022-08-11T15:54:19;2.30;;;2.10;;
7142;SDS011;3613;48.902;9.204;2022-08-11T15:56:49;4.53;;;1.80;;
7142;SDS011;3613;48.902;9.204;2022-08-11T15:59:19;1.93;;;1.77;;
7142;SDS011;3613;48.902;9.204;2022-08-11T16:02:05;2.23;;;2.00;;
7142;SDS011;3613;48.902;9.204;2022-08-11T16:04:53;3.07;;;1.97;;
7142;SDS011;3613;48.902;9.204;2022-08-11T16:07:22;2.30;;;1.90;;
7142;SDS011;3613;48.902;9.204;2022-08-11T16:12:26;2.10;;;1.90;;
7142;SDS011;3613;48.902;9.204;2022-08-11T16:15:06;3.63;;;1.80;;
7142;SDS011;3613;48.902;9.204;2022-08-11T16:17:56;2.77;;;2.20;;
7142;SDS011;3613;48.902;9.204;2022-08-11T16:20:28;2.30;;;1.83;;
7142;SDS011;3613;48.902;9.204;2022-08-11T16:23:04;4.10;;;1.90;;
7142;SDS011;3613;48.902;9.204;2022-08-11T16:25:36;2.27;;;2.03;;
7142;SDS011;3613;48.902;9.204;2022-08-11T16:28:06;2.80;;;2.00;;
7142;SDS011;3613;48.902;9.204;2022-08-11T16:30:39;3.63;;;2.43;;
7142;SDS011;3613;48.902;9.204;2022-08-11T16:33:07;3.90;;;2.03;;
7142;SDS011;3613;48.902;9.204;2022-08-11T16:35:37;2.37;;;2.17;;
7142;SDS011;3613;48.902;9.204;2022-08-11T16:38:25;2.53;;;1.67;;
7142;SDS011;3613;48.902;9.204;2022-08-11T16:41:13;2.60;;;2.07;;
7142;SDS011;3613;48.902;9.204;2022-08-11T16:44:02;2.20;;;2.00;;
7142;SDS011;3613;48.902;9.204;2022-08-11T16:46:48;2.30;;;2.10;;
7142;SDS011;3613;48.902;9.204;2022-08-11T16:49:28;2.53;;;1.80;;
7142;SDS011;3613;48.902;9.204;2022-08-11T16:51:56;2.43;;;2.20;;
7142;SDS011;3613;48.902;9.204;2022-08-11T16:54:30;2.60;;;1.80;;
7142;SDS011;3613;48.902;9.204;2022-08-11T16:56:58;2.33;;;2.10;;
7142;SDS011;3613;48.902;9.204;2022-08-11T16:59:47;5.17;;;2.00;;
7142;SDS011;3613;48.902;9.204;2022-08-11T17:02:15;2.13;;;1.93;;
7142;SDS011;3613;48.902;9.204;2022-08-11T17:05:04;3.27;;;2.00;;
7142;SDS011;3613;48.902;9.204;2022-08-11T17:07:55;6.97;;;2.60;;
7142;SDS011;3613;48.902;9.204;2022-08-11T17:10:47;2.30;;;2.10;;
7142;SDS011;3613;48.902;9.204;2022-08-11T17:13:39;4.47;;;1.90;;
7142;SDS011;3613;48.902;9.204;2022-08-11T17:16:19;2.50;;;2.07;;
7142;SDS011;3613;48.902;9.204;2022-08-11T17:18:57;1.97;;;1.77;;
7142;SDS011;3613;48.902;9.204;2022-08-11T17:24:07;2.20;;;1.80;;
7142;SDS011;3613;48.902;9.204;2022-08-11T17:26:42;2.93;;;2.17;;
7142;SDS011;3613;48.902;9.204;2022-08-11T17:29:26;2.43;;;2.10;;
7142;SDS011;3613;48.902;9.204;2022-08-11T17:32:10;3.57;;;1.90;;
7142;SDS011;3613;48.902;9.204;2022-08-11T17:34:57;3.90;;;2.10;;
7142;SDS011;3613;48.902;9.204;2022-08-11T17:37:47;2.60;;;1.93;;
7142;SDS011;3613;48.902;9.204;2022-08-11T17:40:18;5.33;;;2.07;;
7142;SDS011;3613;48.902;9.204;2022-08-11T17:42:50;2.90;;;2.10;;
7142;SDS011;3613;48.902;9.204;2022-08-11T17:45:39;3.03;;;2.10;;
7142;SDS011;3613;48.902;9.204;2022-08-11T17:48:25;2.90;;;1.97;;
7142;SDS011;3613;48.902;9.204;2022-08-11T17:51:07;4.33;;;1.80;;
7142;SDS011;3613;48.902;9.204;2022-08-11T17:53:41;3.33;;;2.10;;
7142;SDS011;3613;48.902;9.204;2022-08-11T17:56:30;5.60;;;2.50;;
7142;SDS011;3613;48.902;9.204;2022-08-11T17:59:16;4.93;;;2.00;;
7142;SDS011;3613;48.902;9.204;2022-08-11T18:02:02;2.00;;;1.80;;
7142;SDS011;3613;48.902;9.204;2022-08-11T18:04:49;2.67;;;2.20;;
7142;SDS011;3613;48.902;9.204;2022-08-11T18:07:19;2.67;;;2.10;;
7142;SDS011;3613;48.902;9.204;2022-08-11T18:10:06;2.30;;;2.10;;
7142;SDS011;3613;48.902;9.204;2022-08-11T18:12:51;3.50;;;2.00;;
7142;SDS011;3613;48.902;9.204;2022-08-11T18:15:39;2.43;;;1.77;;
7142;SDS011;3613;48.902;9.204;2022-08-11T18:18:26;2.93;;;1.90;;
7142;SDS011;3613;48.902;9.204;2022-08-11T18:21:12;3.37;;;2.03;;
7142;SDS011;3613;48.902;9.204;2022-08-11T18:24:02;2.10;;;1.90;;
7142;SDS011;3613;48.902;9.204;2022-08-11T18:26:50;2.07;;;1.87;;
7142;SDS011;3613;48.902;9.204;2022-08-11T18:29:38;2.50;;;2.17;;
7142;SDS011;3613;48.902;9.204;2022-08-11T18:32:24;2.80;;;1.90;;
7142;SDS011;3613;48.902;9.204;2022-08-11T18:35:10;2.60;;;2.33;;
7142;SDS011;3613;48.902;9.204;2022-08-11T18:37:56;2.80;;;2.30;;
7142;SDS011;3613;48.902;9.204;2022-08-11T18:40:42;3.57;;;2.30;;
7142;SDS011;3613;48.902;9.204;2022-08-11T18:43:27;4.40;;;3.10;;
7142;SDS011;3613;48.902;9.204;2022-08-11T18:46:16;5.90;;;3.07;;
7142;SDS011;3613;48.902;9.204;2022-08-11T18:49:12;3.80;;;2.50;;
7142;SDS011;3613;48.902;9.204;2022-08-11T18:52:00;5.33;;;2.13;;
7142;SDS011;3613;48.902;9.204;2022-08-11T18:54:46;3.97;;;2.50;;
7142;SDS011;3613;48.902;9.204;2022-08-11T18:57:33;5.70;;;2.47;;
7142;SDS011;3613;48.902;9.204;2022-08-11T19:00:22;3.70;;;2.43;;
7142;SDS011;3613;48.902;9.204;2022-08-11T19:03:09;2.43;;;2.17;;
7142;SDS011;3613;48.902;9.204;2022-08-11T19:05:57;4.30;;;2.60;;
7142;SDS011;3613;48.902;9.204;2022-08-11T19:08:51;6.10;;;2.80;;
7142;SDS011;3613;48.902;9.204;2022-08-11T19:11:40;4.13;;;2.70;;
7142;SDS011;3613;48.902;9.204;2022-08-11T19:14:28;5.60;;;4.40;;
7142;SDS011;3613;48.902;9.204;2022-08-11T19:17:13;5.80;;;3.27;;
7142;SDS011;3613;48.902;9.204;2022-08-11T19:19:58;5.07;;;2.60;;
7142;SDS011;3613;48.902;9.204;2022-08-11T19:22:45;3.90;;;3.03;;
7142;SDS011;3613;48.902;9.204;2022-08-11T19:25:31;3.47;;;3.17;;
7142;SDS011;3613;48.902;9.204;2022-08-11T19:28:19;4.33;;;3.10;;
7142;SDS011;3613;48.902;9.204;2022-08-11T19:31:06;3.83;;;2.97;;
7142;SDS011;3613;48.902;9.204;2022-08-11T19:33:51;3.47;;;2.53;;
7142;SDS011;3613;48.902;9.204;2022-08-11T19:36:38;3.30;;;3.00;;
7142;SDS011;3613;48.902;9.204;2022-08-11T19:39:27;3.60;;;2.40;;
7142;SDS011;3613;48.902;9.204;2022-08-11T19:42:12;2.67;;;2.20;;
7142;SDS011;3613;48.902;9.204;2022-08-11T19:44:58;3.70;;;2.30;;
7142;SDS011;3613;48.902;9.204;2022-08-11T19:47:44;4.07;;;2.47;;
7142;SDS011;3613;48.902;9.204;2022-08-11T19:50:32;2.90;;;2.60;;
7142;SDS011;3613;48.902;9.204;2022-08-11T19:53:18;2.53;;;2.33;;
7142;SDS011;3613;48.902;9.204;2022-08-11T19:56:06;4.83;;;2.80;;
7142;SDS011;3613;48.902;9.204;2022-08-11T19:58:51;3.37;;;2.67;;
7142;SDS011;3613;48.902;9.204;2022-08-11T20:01:36;5.57;;;3.33;;
7142;SDS011;3613;48.902;9.204;2022-08-11T20:04:22;3.23;;;2.37;;
7142;SDS011;3613;48.902;9.204;2022-08-11T20:07:06;6.03;;;3.30;;
7142;SDS011;3613;48.902;9.204;2022-08-11T20:09:53;5.47;;;2.87;;
7142;SDS011;3613;48.902;9.204;2022-08-11T20:12:39;3.37;;;2.43;;
7142;SDS011;3613;48.902;9.204;2022-08-11T20:15:26;4.17;;;2.53;;
7142;SDS011;3613;48.902;9.204;2022-08-11T20:18:13;5.17;;;3.17;;
7142;SDS011;3613;48.902;9.204;2022-08-11T20:20:59;7.40;;;4.30;;
7142;SDS011;3613;48.902;9.204;2022-08-11T20:23:45;3.00;;;2.70;;
7142;SDS011;3613;48.902;9.204;2022-08-11T20:26:31;5.30;;;2.60;;
7142;SDS011;3613;48.902;9.204;2022-08-11T20:29:18;3.70;;;2.20;;
7142;SDS011;3613;48.902;9.204;2022-08-11T20:32:05;2.57;;;2.20;;
7142;SDS011;3613;48.902;9.204;2022-08-11T20:34:49;3.23;;;2.37;;
7142;SDS011;3613;48.902;9.204;2022-08-11T20:37:38;3.07;;;2.50;;
7142;SDS011;3613;48.902;9.204;2022-08-11T20:40:23;3.93;;;2.37;;
7142;SDS011;3613;48.902;9.204;2022-08-11T20:43:12;4.67;;;3.10;;